sensor_id;sensor_type;location;lat;lon;timestamp;pressure;altitude;pressure_sealevel;temperature;humidity
10668;BME280;5382;42.136;24.796;2023-02-02T00:00:58;99969.84;;;5.98;70.86
10668;BME280;5382;42.136;24.796;2023-02-02T00:03:26;99987.00;;;6.05;71.40
10668;BME280;5382;42.136;24.796;2023-02-02T00:05:53;100001.41;;;6.14;71.29
10668;BME280;5382;42.136;24.796;2023-02-02T00:08:20;100006.38;;;6.20;69.73
10668;BME280;5382;42.136;24.796;2023-02-02T00:10:47;100019.94;;;6.28;68.44
10668;BME280;5382;42.136;24.796;2023-02-02T00:13:15;100022.78;;;6.41;68.42
10668;BME280;5382;42.136;24.796;2023-02-02T00:15:42;100005.91;;;6.45;67.19
10668;BME280;5382;42.136;24.796;2023-02-02T00:18:08;100024.34;;;6.61;66.24
10668;BME280;5382;42.136;24.796;2023-02-02T00:20:36;100011.88;;;6.64;66.01
10668;BME280;5382;42.136;24.796;2023-02-02T00:23:03;100015.13;;;6.69;65.42
10668;BME280;5382;42.136;24.796;2023-02-02T00:25:30;100014.38;;;6.83;65.52
10668;BME280;5382;42.136;24.796;2023-02-02T00:27:57;100013.44;;;6.84;66.34
10668;BME280;5382;42.136;24.796;2023-02-02T00:30:24;100009.34;;;6.78;66.74
10668;BME280;5382;42.136;24.796;2023-02-02T00:32:51;99998.91;;;6.61;67.57
10668;BME280;5382;42.136;24.796;2023-02-02T00:35:18;100020.78;;;6.62;68.83
10668;BME280;5382;42.136;24.796;2023-02-02T00:37:46;100019.84;;;6.63;69.15
10668;BME280;5382;42.136;24.796;2023-02-02T00:40:13;100020.09;;;6.58;69.81
10668;BME280;5382;42.136;24.796;2023-02-02T00:42:40;100018.75;;;6.51;70.98
10668;BME280;5382;42.136;24.796;2023-02-02T00:45:12;100009.09;;;6.34;71.84
10668;BME280;5382;42.136;24.796;2023-02-02T00:47:41;100007.25;;;6.36;72.71
10668;BME280;5382;42.136;24.796;2023-02-02T00:50:10;100004.34;;;6.25;73.57
10668;BME280;5382;42.136;24.796;2023-02-02T00:52:37;100009.44;;;6.28;74.36
10668;BME280;5382;42.136;24.796;2023-02-02T00:55:06;100004.69;;;6.34;74.70
10668;BME280;5382;42.136;24.796;2023-02-02T00:57:33;100016.31;;;6.30;74.88
10668;BME280;5382;42.136;24.796;2023-02-02T01:00:00;100010.44;;;6.25;75.03
10668;BME280;5382;42.136;24.796;2023-02-02T01:02:27;99999.94;;;6.25;75.26
10668;BME280;5382;42.136;24.796;2023-02-02T01:04:54;99972.06;;;6.05;75.20
10668;BME280;5382;42.136;24.796;2023-02-02T01:07:21;100020.13;;;6.25;75.40
10668;BME280;5382;42.136;24.796;2023-02-02T01:09:48;100018.31;;;6.25;75.55
10668;BME280;5382;42.136;24.796;2023-02-02T01:12:16;100003.25;;;6.11;75.46
10668;BME280;5382;42.136;24.796;2023-02-02T01:14:43;100019.25;;;6.24;75.07
10668;BME280;5382;42.136;24.796;2023-02-02T01:17:09;100017.78;;;6.19;74.96
10668;BME280;5382;42.136;24.796;2023-02-02T01:19:37;100016.00;;;6.19;75.19
10668;BME280;5382;42.136;24.796;2023-02-02T01:22:06;100019.81;;;6.14;75.56
10668;BME280;5382;42.136;24.796;2023-02-02T01:24:32;100016.16;;;6.16;76.04
10668;BME280;5382;42.136;24.796;2023-02-02T01:26:59;100026.00;;;6.13;76.45
10668;BME280;5382;42.136;24.796;2023-02-02T01:29:27;100004.94;;;5.97;76.71
10668;BME280;5382;42.136;24.796;2023-02-02T01:31:54;100026.38;;;6.05;77.28
10668;BME280;5382;42.136;24.796;2023-02-02T01:34:21;100018.28;;;6.09;76.54
10668;BME280;5382;42.136;24.796;2023-02-02T01:36:48;100024.75;;;6.20;76.95
10668;BME280;5382;42.136;24.796;2023-02-02T01:39:15;100026.06;;;6.11;77.30
10668;BME280;5382;42.136;24.796;2023-02-02T01:41:41;100019.81;;;6.14;77.91
10668;BME280;5382;42.136;24.796;2023-02-02T01:47:09;100027.63;;;6.15;79.12
10668;BME280;5382;42.136;24.796;2023-02-02T01:49:36;100019.91;;;6.12;79.58
10668;BME280;5382;42.136;24.796;2023-02-02T01:52:04;100019.97;;;6.10;79.52
10668;BME280;5382;42.136;24.796;2023-02-02T01:54:34;99984.09;;;5.92;79.47
10668;BME280;5382;42.136;24.796;2023-02-02T01:57:04;100010.06;;;6.16;79.09
10668;BME280;5382;42.136;24.796;2023-02-02T01:59:33;100015.00;;;6.22;79.29
10668;BME280;5382;42.136;24.796;2023-02-02T02:02:00;100014.94;;;6.23;78.76
10668;BME280;5382;42.136;24.796;2023-02-02T02:04:30;100007.50;;;6.14;78.18
10668;BME280;5382;42.136;24.796;2023-02-02T02:07:00;100020.78;;;6.28;78.16
10668;BME280;5382;42.136;24.796;2023-02-02T02:09:28;100019.94;;;6.28;77.65
10668;BME280;5382;42.136;24.796;2023-02-02T02:11:55;100016.59;;;6.24;77.28
10668;BME280;5382;42.136;24.796;2023-02-02T02:14:22;100014.09;;;6.23;77.83
10668;BME280;5382;42.136;24.796;2023-02-02T02:17:13;100003.13;;;6.15;77.82
10668;BME280;5382;42.136;24.796;2023-02-02T02:23:50;100016.09;;;6.18;78.86
10668;BME280;5382;42.136;24.796;2023-02-02T02:26:59;100022.44;;;6.14;79.66
10668;BME280;5382;42.136;24.796;2023-02-02T02:29:53;100020.91;;;6.09;80.12
10668;BME280;5382;42.136;24.796;2023-02-02T02:32:31;100020.13;;;6.07;80.07
10668;BME280;5382;42.136;24.796;2023-02-02T02:35:05;100019.34;;;6.05;80.05
10668;BME280;5382;42.136;24.796;2023-02-02T02:37:38;100010.53;;;6.06;80.40
10668;BME280;5382;42.136;24.796;2023-02-02T02:40:14;100016.66;;;6.07;80.74
10668;BME280;5382;42.136;24.796;2023-02-02T02:42:45;100015.88;;;6.05;80.83
10668;BME280;5382;42.136;24.796;2023-02-02T02:45:16;100014.94;;;6.06;80.55
10668;BME280;5382;42.136;24.796;2023-02-02T02:47:47;100002.56;;;5.90;81.35
10668;BME280;5382;42.136;24.796;2023-02-02T02:50:15;100006.38;;;6.02;80.85
10668;BME280;5382;42.136;24.796;2023-02-02T02:52:43;100002.66;;;6.06;80.62
10668;BME280;5382;42.136;24.796;2023-02-02T02:55:11;99980.03;;;5.86;81.18
10668;BME280;5382;42.136;24.796;2023-02-02T02:57:59;100010.63;;;6.05;81.46
10668;BME280;5382;42.136;24.796;2023-02-02T03:00:38;99989.78;;;6.02;81.44
10668;BME280;5382;42.136;24.796;2023-02-02T03:03:16;100000.13;;;6.05;82.16
10668;BME280;5382;42.136;24.796;2023-02-02T03:05:50;99995.78;;;6.04;81.89
10668;BME280;5382;42.136;24.796;2023-02-02T03:08:23;99993.09;;;6.05;82.21
10668;BME280;5382;42.136;24.796;2023-02-02T03:10:54;99994.47;;;5.95;83.10
10668;BME280;5382;42.136;24.796;2023-02-02T03:13:23;100004.94;;;5.97;83.33
10668;BME280;5382;42.136;24.796;2023-02-02T03:15:52;99996.31;;;5.93;83.15
10668;BME280;5382;42.136;24.796;2023-02-02T03:18:22;100007.53;;;5.97;82.97
10668;BME280;5382;42.136;24.796;2023-02-02T03:20:50;100005.97;;;5.93;83.07
10668;BME280;5382;42.136;24.796;2023-02-02T03:23:17;99986.66;;;5.76;82.74
10668;BME280;5382;42.136;24.796;2023-02-02T03:25:44;99970.97;;;5.75;81.88
10668;BME280;5382;42.136;24.796;2023-02-02T03:28:11;100001.97;;;6.03;81.55
10668;BME280;5382;42.136;24.796;2023-02-02T03:30:41;100001.81;;;6.06;80.80
10668;BME280;5382;42.136;24.796;2023-02-02T03:33:10;99984.44;;;6.03;80.78
10668;BME280;5382;42.136;24.796;2023-02-02T03:35:38;99986.50;;;6.14;80.52
10668;BME280;5382;42.136;24.796;2023-02-02T03:38:05;99982.09;;;6.15;80.48
10668;BME280;5382;42.136;24.796;2023-02-02T03:40:33;99987.97;;;6.20;80.38
10668;BME280;5382;42.136;24.796;2023-02-02T03:43:00;99988.41;;;6.28;79.81
10668;BME280;5382;42.136;24.796;2023-02-02T03:45:27;99968.81;;;6.18;79.58
10668;BME280;5382;42.136;24.796;2023-02-02T03:47:54;99953.94;;;6.17;79.31
10668;BME280;5382;42.136;24.796;2023-02-02T03:50:21;99986.84;;;6.41;79.17
10668;BME280;5382;42.136;24.796;2023-02-02T03:52:50;99979.44;;;6.48;78.44
10668;BME280;5382;42.136;24.796;2023-02-02T03:55:17;99989.81;;;6.51;78.38
10668;BME280;5382;42.136;24.796;2023-02-02T03:57:44;99974.91;;;6.51;78.59
10668;BME280;5382;42.136;24.796;2023-02-02T04:00:11;99987.03;;;6.54;78.55
10668;BME280;5382;42.136;24.796;2023-02-02T04:02:38;99960.44;;;6.43;78.60
10668;BME280;5382;42.136;24.796;2023-02-02T04:05:05;99985.06;;;6.58;78.39
10668;BME280;5382;42.136;24.796;2023-02-02T04:07:32;99983.38;;;6.57;78.10
10668;BME280;5382;42.136;24.796;2023-02-02T04:10:00;99990.56;;;6.53;78.63
10668;BME280;5382;42.136;24.796;2023-02-02T04:12:27;99978.75;;;6.28;78.84
10668;BME280;5382;42.136;24.796;2023-02-02T04:14:56;99988.88;;;6.52;79.25
10668;BME280;5382;42.136;24.796;2023-02-02T04:17:22;99990.66;;;6.51;79.33
10668;BME280;5382;42.136;24.796;2023-02-02T04:19:49;99986.19;;;6.53;79.15
10668;BME280;5382;42.136;24.796;2023-02-02T04:22:21;99990.44;;;6.56;79.25
10668;BME280;5382;42.136;24.796;2023-02-02T04:24:48;99984.56;;;6.51;79.78
10668;BME280;5382;42.136;24.796;2023-02-02T04:27:16;99999.94;;;6.59;80.06
10668;BME280;5382;42.136;24.796;2023-02-02T04:29:43;99993.78;;;6.58;80.16
10668;BME280;5382;42.136;24.796;2023-02-02T04:32:09;99995.69;;;6.56;80.64
10668;BME280;5382;42.136;24.796;2023-02-02T04:34:36;99993.19;;;6.53;80.89
10668;BME280;5382;42.136;24.796;2023-02-02T04:37:03;99993.06;;;6.56;81.28
10668;BME280;5382;42.136;24.796;2023-02-02T04:39:30;100007.13;;;6.55;81.67
10668;BME280;5382;42.136;24.796;2023-02-02T04:41:56;99970.88;;;6.28;81.65
10668;BME280;5382;42.136;24.796;2023-02-02T04:44:25;100012.00;;;6.45;82.21
10668;BME280;5382;42.136;24.796;2023-02-02T04:46:51;100012.28;;;6.41;82.50
10668;BME280;5382;42.136;24.796;2023-02-02T04:49:18;100003.16;;;6.30;83.01
10668;BME280;5382;42.136;24.796;2023-02-02T04:51:46;100011.50;;;6.39;83.06
10668;BME280;5382;42.136;24.796;2023-02-02T04:54:14;100016.06;;;6.35;82.84
10668;BME280;5382;42.136;24.796;2023-02-02T04:56:41;100007.25;;;6.36;82.08
10668;BME280;5382;42.136;24.796;2023-02-02T04:59:08;100011.81;;;6.32;81.61
10668;BME280;5382;42.136;24.796;2023-02-02T05:01:36;100030.63;;;6.25;82.15
10668;BME280;5382;42.136;24.796;2023-02-02T05:04:03;100021.81;;;6.26;81.96
10668;BME280;5382;42.136;24.796;2023-02-02T05:06:29;100020.19;;;6.23;81.97
10668;BME280;5382;42.136;24.796;2023-02-02T05:08:56;100027.38;;;6.20;81.66
10668;BME280;5382;42.136;24.796;2023-02-02T05:11:23;100022.81;;;6.23;81.73
10668;BME280;5382;42.136;24.796;2023-02-02T05:13:51;100041.44;;;6.19;81.99
10668;BME280;5382;42.136;24.796;2023-02-02T05:16:19;100028.91;;;6.24;81.41
10668;BME280;5382;42.136;24.796;2023-02-02T05:18:49;100032.53;;;6.21;81.60
10668;BME280;5382;42.136;24.796;2023-02-02T05:21:16;100023.13;;;6.17;81.81
10668;BME280;5382;42.136;24.796;2023-02-02T05:23:44;100032.09;;;6.13;81.00
10668;BME280;5382;42.136;24.796;2023-02-02T05:26:15;100033.66;;;6.17;80.54
10668;BME280;5382;42.136;24.796;2023-02-02T05:28:42;100043.81;;;6.23;80.07
10668;BME280;5382;42.136;24.796;2023-02-02T05:31:10;100048.31;;;6.21;79.82
10668;BME280;5382;42.136;24.796;2023-02-02T05:33:37;100035.25;;;6.20;79.91
10668;BME280;5382;42.136;24.796;2023-02-02T05:36:06;100042.28;;;6.19;79.79
10668;BME280;5382;42.136;24.796;2023-02-02T05:38:33;100041.38;;;6.20;79.99
10668;BME280;5382;42.136;24.796;2023-02-02T05:41:02;100040.13;;;6.27;82.37
10668;BME280;5382;42.136;24.796;2023-02-02T05:43:30;100046.13;;;6.29;79.61
10668;BME280;5382;42.136;24.796;2023-02-02T05:45:57;100039.84;;;6.32;79.45
10668;BME280;5382;42.136;24.796;2023-02-02T05:48:24;100046.91;;;6.31;78.21
10668;BME280;5382;42.136;24.796;2023-02-02T05:50:57;100048.63;;;6.32;78.80
10668;BME280;5382;42.136;24.796;2023-02-02T05:53:27;100057.66;;;6.27;79.47
10668;BME280;5382;42.136;24.796;2023-02-02T05:55:54;100056.56;;;6.31;78.61
10668;BME280;5382;42.136;24.796;2023-02-02T05:58:21;100043.50;;;6.29;78.54
10668;BME280;5382;42.136;24.796;2023-02-02T06:00:49;100037.41;;;6.29;78.16
10668;BME280;5382;42.136;24.796;2023-02-02T06:03:16;100056.19;;;6.39;78.30
10668;BME280;5382;42.136;24.796;2023-02-02T06:05:42;100057.84;;;6.40;77.42
10668;BME280;5382;42.136;24.796;2023-02-02T06:08:09;100062.03;;;6.44;77.67
10668;BME280;5382;42.136;24.796;2023-02-02T06:10:39;100041.34;;;6.38;77.30
10668;BME280;5382;42.136;24.796;2023-02-02T06:13:06;100053.91;;;6.48;76.96
10668;BME280;5382;42.136;24.796;2023-02-02T06:15:33;100061.53;;;6.53;77.29
10668;BME280;5382;42.136;24.796;2023-02-02T06:18:02;100051.75;;;6.39;77.30
10668;BME280;5382;42.136;24.796;2023-02-02T06:20:30;100065.78;;;6.55;77.49
10668;BME280;5382;42.136;24.796;2023-02-02T06:22:57;100067.34;;;6.60;77.06
10668;BME280;5382;42.136;24.796;2023-02-02T06:25:24;100071.22;;;6.52;76.27
10668;BME280;5382;42.136;24.796;2023-02-02T06:27:55;100083.66;;;6.66;76.02
10668;BME280;5382;42.136;24.796;2023-02-02T06:30:22;100079.25;;;6.67;75.35
10668;BME280;5382;42.136;24.796;2023-02-02T06:32:49;100078.72;;;6.76;74.92
10668;BME280;5382;42.136;24.796;2023-02-02T06:35:16;100081.28;;;6.77;74.44
10668;BME280;5382;42.136;24.796;2023-02-02T06:37:42;100070.94;;;6.74;74.58
10668;BME280;5382;42.136;24.796;2023-02-02T06:40:10;100085.53;;;6.80;73.61
10668;BME280;5382;42.136;24.796;2023-02-02T06:42:38;100078.59;;;6.79;73.14
10668;BME280;5382;42.136;24.796;2023-02-02T06:45:07;100079.44;;;6.80;72.83
10668;BME280;5382;42.136;24.796;2023-02-02T06:47:35;100077.72;;;6.78;71.97
10668;BME280;5382;42.136;24.796;2023-02-02T06:50:02;100083.69;;;6.82;71.31
10668;BME280;5382;42.136;24.796;2023-02-02T06:52:29;100078.78;;;6.92;70.65
10668;BME280;5382;42.136;24.796;2023-02-02T06:54:56;100094.06;;;7.01;69.28
10668;BME280;5382;42.136;24.796;2023-02-02T06:57:23;100075.22;;;7.09;68.69
10668;BME280;5382;42.136;24.796;2023-02-02T06:59:53;100073.25;;;7.12;67.83
10668;BME280;5382;42.136;24.796;2023-02-02T07:02:21;100056.56;;;7.13;67.93
10668;BME280;5382;42.136;24.796;2023-02-02T07:04:48;100077.97;;;7.23;66.50
10668;BME280;5382;42.136;24.796;2023-02-02T07:07:15;100081.34;;;7.25;66.13
10668;BME280;5382;42.136;24.796;2023-02-02T07:09:42;100091.63;;;7.30;66.09
10668;BME280;5382;42.136;24.796;2023-02-02T07:12:09;100094.00;;;7.34;66.18
10668;BME280;5382;42.136;24.796;2023-02-02T07:14:36;100098.00;;;7.41;66.56
10668;BME280;5382;42.136;24.796;2023-02-02T07:17:03;100095.19;;;7.45;66.62
10668;BME280;5382;42.136;24.796;2023-02-02T07:19:31;100010.47;;;6.90;66.87
10668;BME280;5382;42.136;24.796;2023-02-02T07:21:58;100088.06;;;7.47;66.77
10668;BME280;5382;42.136;24.796;2023-02-02T07:24:24;100125.16;;;7.58;66.68
10668;BME280;5382;42.136;24.796;2023-02-02T07:26:53;100061.81;;;7.29;66.49
10668;BME280;5382;42.136;24.796;2023-02-02T07:29:22;100090.31;;;7.69;66.75
10668;BME280;5382;42.136;24.796;2023-02-02T07:31:49;100090.66;;;7.78;66.55
10668;BME280;5382;42.136;24.796;2023-02-02T07:34:16;100050.91;;;7.67;66.39
10668;BME280;5382;42.136;24.796;2023-02-02T07:36:44;100092.41;;;7.94;66.32
10668;BME280;5382;42.136;24.796;2023-02-02T07:39:11;100093.75;;;8.01;65.75
10668;BME280;5382;42.136;24.796;2023-02-02T07:41:38;100105.34;;;8.13;64.86
10668;BME280;5382;42.136;24.796;2023-02-02T07:44:05;100108.28;;;8.22;65.74
10668;BME280;5382;42.136;24.796;2023-02-02T07:46:32;100094.75;;;8.44;64.37
10668;BME280;5382;42.136;24.796;2023-02-02T07:48:59;100101.31;;;8.51;62.52
10668;BME280;5382;42.136;24.796;2023-02-02T07:51:26;100090.78;;;8.66;64.40
10668;BME280;5382;42.136;24.796;2023-02-02T07:53:54;100067.53;;;8.72;61.58
10668;BME280;5382;42.136;24.796;2023-02-02T07:56:24;100092.19;;;9.00;60.85
10668;BME280;5382;42.136;24.796;2023-02-02T07:58:52;100048.97;;;8.74;61.10
10668;BME280;5382;42.136;24.796;2023-02-02T08:01:19;100102.09;;;8.97;60.95
10668;BME280;5382;42.136;24.796;2023-02-02T08:03:48;100104.06;;;8.93;61.15
10668;BME280;5382;42.136;24.796;2023-02-02T08:06:17;100104.19;;;8.91;61.39
10668;BME280;5382;42.136;24.796;2023-02-02T08:08:45;100100.31;;;8.83;62.16
10668;BME280;5382;42.136;24.796;2023-02-02T08:11:14;100055.91;;;8.46;62.17
10668;BME280;5382;42.136;24.796;2023-02-02T08:13:42;100099.25;;;8.85;61.82
10668;BME280;5382;42.136;24.796;2023-02-02T08:16:10;100111.34;;;8.89;62.32
10668;BME280;5382;42.136;24.796;2023-02-02T08:18:38;100099.75;;;8.92;62.87
10668;BME280;5382;42.136;24.796;2023-02-02T08:21:06;100097.28;;;9.17;61.03
10668;BME280;5382;42.136;24.796;2023-02-02T08:23:34;100068.25;;;9.17;60.79
10668;BME280;5382;42.136;24.796;2023-02-02T08:26:05;100110.69;;;9.14;60.48
10668;BME280;5382;42.136;24.796;2023-02-02T08:28:34;100063.00;;;8.74;60.70
10668;BME280;5382;42.136;24.796;2023-02-02T08:31:05;100078.47;;;8.81;61.40
10668;BME280;5382;42.136;24.796;2023-02-02T08:33:32;100024.47;;;8.43;61.38
10668;BME280;5382;42.136;24.796;2023-02-02T08:35:59;100029.47;;;8.62;61.33
10668;BME280;5382;42.136;24.796;2023-02-02T08:38:26;100094.06;;;8.98;61.56
10668;BME280;5382;42.136;24.796;2023-02-02T08:40:53;100095.75;;;9.28;61.87
10668;BME280;5382;42.136;24.796;2023-02-02T08:43:21;100080.97;;;9.52;61.82
10668;BME280;5382;42.136;24.796;2023-02-02T08:45:50;100074.69;;;9.41;60.14
10668;BME280;5382;42.136;24.796;2023-02-02T08:48:17;100073.94;;;9.38;58.87
10668;BME280;5382;42.136;24.796;2023-02-02T08:50:51;100088.50;;;9.58;59.08
10668;BME280;5382;42.136;24.796;2023-02-02T08:53:19;100086.84;;;9.70;58.66
10668;BME280;5382;42.136;24.796;2023-02-02T08:55:46;100086.47;;;9.76;57.72
10668;BME280;5382;42.136;24.796;2023-02-02T08:58:12;100060.88;;;9.77;57.20
10668;BME280;5382;42.136;24.796;2023-02-02T09:00:40;100076.81;;;10.02;57.51
10668;BME280;5382;42.136;24.796;2023-02-02T09:03:08;100075.78;;;10.18;55.76
10668;BME280;5382;42.136;24.796;2023-02-02T09:05:34;100082.53;;;10.09;56.13
10668;BME280;5382;42.136;24.796;2023-02-02T09:08:03;100059.16;;;10.16;55.09
10668;BME280;5382;42.136;24.796;2023-02-02T09:10:30;100064.69;;;10.13;54.28
10668;BME280;5382;42.136;24.796;2023-02-02T09:12:57;100077.22;;;10.09;54.72
10668;BME280;5382;42.136;24.796;2023-02-02T09:15:23;100038.53;;;10.08;54.56
10668;BME280;5382;42.136;24.796;2023-02-02T09:17:51;100021.06;;;9.93;54.15
10668;BME280;5382;42.136;24.796;2023-02-02T09:20:22;100031.97;;;10.14;54.39
10668;BME280;5382;42.136;24.796;2023-02-02T09:22:48;99860.69;;;9.02;53.91
10668;BME280;5382;42.136;24.796;2023-02-02T09:25:15;100034.38;;;10.31;53.11
10668;BME280;5382;42.136;24.796;2023-02-02T09:27:42;100020.16;;;10.32;53.31
10668;BME280;5382;42.136;24.796;2023-02-02T09:30:10;100031.72;;;10.31;53.16
10668;BME280;5382;42.136;24.796;2023-02-02T09:32:37;100001.09;;;10.27;53.06
10668;BME280;5382;42.136;24.796;2023-02-02T09:35:04;100015.22;;;10.40;52.88
10668;BME280;5382;42.136;24.796;2023-02-02T09:37:34;99999.88;;;10.45;52.75
10668;BME280;5382;42.136;24.796;2023-02-02T09:40:00;99920.53;;;9.94;52.98
10668;BME280;5382;42.136;24.796;2023-02-02T09:42:44;99992.53;;;10.75;51.52
10668;BME280;5382;42.136;24.796;2023-02-02T09:45:21;99955.91;;;10.68;52.06
10668;BME280;5382;42.136;24.796;2023-02-02T09:47:55;99976.81;;;10.97;50.54
10668;BME280;5382;42.136;24.796;2023-02-02T09:50:41;99994.38;;;10.98;50.19
10668;BME280;5382;42.136;24.796;2023-02-02T09:53:17;99992.88;;;10.94;50.33
10668;BME280;5382;42.136;24.796;2023-02-02T09:55:49;99913.75;;;10.29;50.33
10668;BME280;5382;42.136;24.796;2023-02-02T09:58:19;99970.03;;;10.93;50.69
10668;BME280;5382;42.136;24.796;2023-02-02T10:00:54;99949.38;;;10.98;51.01
10668;BME280;5382;42.136;24.796;2023-02-02T10:03:26;99955.84;;;11.18;50.98
10668;BME280;5382;42.136;24.796;2023-02-02T10:06:03;99961.06;;;11.07;50.82
10668;BME280;5382;42.136;24.796;2023-02-02T10:08:37;99952.75;;;11.00;50.90
10668;BME280;5382;42.136;24.796;2023-02-02T10:11:26;99953.13;;;11.07;50.90
10668;BME280;5382;42.136;24.796;2023-02-02T10:13:58;99939.78;;;11.08;50.92
10668;BME280;5382;42.136;24.796;2023-02-02T10:16:28;99937.66;;;11.13;50.71
10668;BME280;5382;42.136;24.796;2023-02-02T10:18:59;99933.22;;;11.25;49.92
10668;BME280;5382;42.136;24.796;2023-02-02T10:21:33;99944.56;;;11.27;49.87
10668;BME280;5382;42.136;24.796;2023-02-02T10:24:12;99918.63;;;11.44;49.95
10668;BME280;5382;42.136;24.796;2023-02-02T10:26:44;99916.34;;;11.50;49.61
10668;BME280;5382;42.136;24.796;2023-02-02T10:29:15;99906.47;;;11.41;50.33
10668;BME280;5382;42.136;24.796;2023-02-02T10:31:48;99855.09;;;11.20;50.33
10668;BME280;5382;42.136;24.796;2023-02-02T10:34:22;99908.47;;;11.62;50.53
10668;BME280;5382;42.136;24.796;2023-02-02T10:37:05;99909.69;;;11.80;49.51
10668;BME280;5382;42.136;24.796;2023-02-02T10:40:02;99907.16;;;11.78;47.56
10668;BME280;5382;42.136;24.796;2023-02-02T10:42:37;99900.03;;;11.68;47.06
10668;BME280;5382;42.136;24.796;2023-02-02T10:45:13;99919.91;;;11.73;46.86
10668;BME280;5382;42.136;24.796;2023-02-02T10:47:41;99821.38;;;11.22;47.01
10668;BME280;5382;42.136;24.796;2023-02-02T10:50:16;99901.34;;;11.73;46.26
10668;BME280;5382;42.136;24.796;2023-02-02T10:52:45;99889.25;;;11.93;46.30
10668;BME280;5382;42.136;24.796;2023-02-02T10:55:20;99885.75;;;11.93;46.84
10668;BME280;5382;42.136;24.796;2023-02-02T10:58:00;99881.06;;;12.08;46.25
10668;BME280;5382;42.136;24.796;2023-02-02T11:00:31;99872.84;;;12.44;46.09
10668;BME280;5382;42.136;24.796;2023-02-02T11:03:00;99863.50;;;12.73;45.36
10668;BME280;5382;42.136;24.796;2023-02-02T11:05:29;99866.50;;;13.12;43.61
10668;BME280;5382;42.136;24.796;2023-02-02T11:08:16;99854.56;;;13.59;42.79
10668;BME280;5382;42.136;24.796;2023-02-02T11:10:46;99865.16;;;13.80;42.16
10668;BME280;5382;42.136;24.796;2023-02-02T11:13:18;99856.88;;;13.73;42.42
10668;BME280;5382;42.136;24.796;2023-02-02T11:15:47;99854.22;;;14.04;41.88
10668;BME280;5382;42.136;24.796;2023-02-02T11:18:24;99824.31;;;14.22;41.29
10668;BME280;5382;42.136;24.796;2023-02-02T11:20:52;99838.59;;;14.71;41.15
10668;BME280;5382;42.136;24.796;2023-02-02T11:23:20;99810.66;;;15.33;39.97
10668;BME280;5382;42.136;24.796;2023-02-02T11:25:58;99815.00;;;16.28;38.68
10668;BME280;5382;42.136;24.796;2023-02-02T11:28:26;99797.53;;;16.97;36.80
10668;BME280;5382;42.136;24.796;2023-02-02T11:30:57;99797.44;;;17.25;35.74
10668;BME280;5382;42.136;24.796;2023-02-02T11:33:27;99752.41;;;17.47;34.47
10668;BME280;5382;42.136;24.796;2023-02-02T11:35:56;99730.53;;;18.28;33.91
10668;BME280;5382;42.136;24.796;2023-02-02T11:38:25;99759.44;;;19.16;33.02
10668;BME280;5382;42.136;24.796;2023-02-02T11:40:53;99786.03;;;19.67;31.90
10668;BME280;5382;42.136;24.796;2023-02-02T11:43:27;99765.78;;;20.03;31.20
10668;BME280;5382;42.136;24.796;2023-02-02T11:45:56;99748.31;;;20.62;30.74
10668;BME280;5382;42.136;24.796;2023-02-02T11:48:28;99753.25;;;21.34;29.64
10668;BME280;5382;42.136;24.796;2023-02-02T11:50:57;99739.34;;;22.05;29.35
10668;BME280;5382;42.136;24.796;2023-02-02T11:53:27;99728.88;;;20.52;28.33
10668;BME280;5382;42.136;24.796;2023-02-02T11:55:56;99739.50;;;20.22;28.88
10668;BME280;5382;42.136;24.796;2023-02-02T11:58:27;99733.22;;;19.98;29.12
10668;BME280;5382;42.136;24.796;2023-02-02T12:00:59;99730.09;;;19.14;29.16
10668;BME280;5382;42.136;24.796;2023-02-02T12:03:32;99732.41;;;18.68;29.47
10668;BME280;5382;42.136;24.796;2023-02-02T12:06:00;99724.72;;;18.41;29.67
10668;BME280;5382;42.136;24.796;2023-02-02T12:08:42;99722.63;;;18.02;29.31
10668;BME280;5382;42.136;24.796;2023-02-02T12:11:20;99734.72;;;17.19;30.24
10668;BME280;5382;42.136;24.796;2023-02-02T12:14:01;99770.31;;;16.48;31.29
10668;BME280;5382;42.136;24.796;2023-02-02T12:16:51;99728.50;;;16.39;31.57
10668;BME280;5382;42.136;24.796;2023-02-02T12:22:30;99728.56;;;16.11;31.30
10668;BME280;5382;42.136;24.796;2023-02-02T12:25:07;99722.88;;;15.97;31.74
10668;BME280;5382;42.136;24.796;2023-02-02T12:27:47;99728.53;;;15.94;32.42
10668;BME280;5382;42.136;24.796;2023-02-02T12:30:25;99721.78;;;16.53;31.90
10668;BME280;5382;42.136;24.796;2023-02-02T12:36:08;99729.22;;;15.96;32.86
10668;BME280;5382;42.136;24.796;2023-02-02T12:38:53;99723.06;;;15.48;33.46
10668;BME280;5382;42.136;24.796;2023-02-02T12:41:37;99636.63;;;14.08;34.18
10668;BME280;5382;42.136;24.796;2023-02-02T12:44:16;99730.38;;;14.40;34.73
10668;BME280;5382;42.136;24.796;2023-02-02T12:46:58;99734.25;;;14.27;33.68
10668;BME280;5382;42.136;24.796;2023-02-02T12:49:45;99705.47;;;13.82;34.43
10668;BME280;5382;42.136;24.796;2023-02-02T12:52:31;99719.28;;;13.66;34.18
10668;BME280;5382;42.136;24.796;2023-02-02T12:55:13;99683.19;;;13.33;35.18
10668;BME280;5382;42.136;24.796;2023-02-02T12:57:49;99725.28;;;13.68;34.76
10668;BME280;5382;42.136;24.796;2023-02-02T13:00:37;99691.44;;;13.70;34.51
10668;BME280;5382;42.136;24.796;2023-02-02T13:03:21;99687.16;;;13.98;33.98
10668;BME280;5382;42.136;24.796;2023-02-02T13:06:01;99752.19;;;14.25;33.09
10668;BME280;5382;42.136;24.796;2023-02-02T13:08:35;99703.81;;;13.90;33.90
10668;BME280;5382;42.136;24.796;2023-02-02T13:11:07;99724.69;;;13.95;33.91
10668;BME280;5382;42.136;24.796;2023-02-02T13:13:56;99720.38;;;14.13;33.82
10668;BME280;5382;42.136;24.796;2023-02-02T13:16:25;99713.66;;;14.19;33.80
10668;BME280;5382;42.136;24.796;2023-02-02T13:18:57;99678.56;;;13.75;33.96
10668;BME280;5382;42.136;24.796;2023-02-02T13:21:26;99700.94;;;13.72;34.74
10668;BME280;5382;42.136;24.796;2023-02-02T13:23:56;99699.84;;;13.75;35.20
10668;BME280;5382;42.136;24.796;2023-02-02T13:26:26;99693.41;;;13.78;35.42
10668;BME280;5382;42.136;24.796;2023-02-02T13:29:00;99693.75;;;13.94;35.30
10668;BME280;5382;42.136;24.796;2023-02-02T13:31:33;99693.91;;;14.22;34.69